sensor_id;sensor_type;location;lat;lon;timestamp;P1;durP1;ratioP1;P2;durP2;ratioP2
18576;SDS011;9418;52.694;13.294;2022-09-12T00:01:46;4.10;;;3.80;;
18576;SDS011;9418;52.694;13.294;2022-09-12T00:04:12;4.30;;;3.90;;
18576;SDS011;9418;52.694;13.294;2022-09-12T00:06:39;3.50;;;3.30;;
18576;SDS011;9418;52.694;13.294;2022-09-12T00:09:08;4.00;;;3.60;;
18576;SDS011;9418;52.694;13.294;2022-09-12T00:11:39;5.43;;;3.57;;
18576;SDS011;9418;52.694;13.294;2022-09-12T00:14:07;5.73;;;3.47;;
18576;SDS011;9418;52.694;13.294;2022-09-12T00:16:35;6.00;;;3.67;;
18576;SDS011;9418;52.694;13.294;2022-09-12T00:19:03;3.27;;;3.03;;
18576;SDS011;9418;52.694;13.294;2022-09-12T00:21:31;4.03;;;3.73;;
18576;SDS011;9418;52.694;13.294;2022-09-12T00:23:58;5.83;;;3.97;;
18576;SDS011;9418;52.694;13.294;2022-09-12T00:26:25;4.40;;;3.80;;
18576;SDS011;9418;52.694;13.294;2022-09-12T00:28:53;5.40;;;3.63;;
18576;SDS011;9418;52.694;13.294;2022-09-12T00:31:20;3.67;;;3.37;;
18576;SDS011;9418;52.694;13.294;2022-09-12T00:33:48;3.53;;;3.23;;
18576;SDS011;9418;52.694;13.294;2022-09-12T00:36:17;3.07;;;2.80;;
18576;SDS011;9418;52.694;13.294;2022-09-12T00:38:45;12.20;;;3.27;;
18576;SDS011;9418;52.694;13.294;2022-09-12T00:41:14;3.90;;;3.60;;
18576;SDS011;9418;52.694;13.294;2022-09-12T00:43:44;3.20;;;3.00;;
18576;SDS011;9418;52.694;13.294;2022-09-12T00:46:15;3.00;;;2.80;;
18576;SDS011;9418;52.694;13.294;2022-09-12T00:48:52;4.37;;;3.43;;
18576;SDS011;9418;52.694;13.294;2022-09-12T00:51:23;3.33;;;3.03;;
18576;SDS011;9418;52.694;13.294;2022-09-12T00:53:50;3.37;;;3.13;;
18576;SDS011;9418;52.694;13.294;2022-09-12T00:56:19;3.27;;;3.07;;
18576;SDS011;9418;52.694;13.294;2022-09-12T00:58:49;3.30;;;2.70;;
18576;SDS011;9418;52.694;13.294;2022-09-12T01:01:21;2.87;;;2.67;;
18576;SDS011;9418;52.694;13.294;2022-09-12T01:03:49;3.43;;;3.13;;
18576;SDS011;9418;52.694;13.294;2022-09-12T01:06:17;2.80;;;2.70;;
18576;SDS011;9418;52.694;13.294;2022-09-12T01:08:47;2.90;;;2.70;;
18576;SDS011;9418;52.694;13.294;2022-09-12T01:11:16;3.33;;;3.13;;
18576;SDS011;9418;52.694;13.294;2022-09-12T01:13:44;4.00;;;3.50;;
18576;SDS011;9418;52.694;13.294;2022-09-12T01:16:11;3.20;;;2.90;;
18576;SDS011;9418;52.694;13.294;2022-09-12T01:18:46;3.30;;;3.10;;
18576;SDS011;9418;52.694;13.294;2022-09-12T01:21:22;3.10;;;2.90;;
18576;SDS011;9418;52.694;13.294;2022-09-12T01:27:12;3.00;;;2.80;;
18576;SDS011;9418;52.694;13.294;2022-09-12T01:30:15;5.37;;;3.10;;
18576;SDS011;9418;52.694;13.294;2022-09-12T01:32:50;3.57;;;3.30;;
18576;SDS011;9418;52.694;13.294;2022-09-12T01:35:30;3.10;;;2.80;;
18576;SDS011;9418;52.694;13.294;2022-09-12T01:38:04;3.03;;;2.83;;
18576;SDS011;9418;52.694;13.294;2022-09-12T01:40:39;3.67;;;3.30;;
18576;SDS011;9418;52.694;13.294;2022-09-12T01:43:16;4.23;;;3.13;;
18576;SDS011;9418;52.694;13.294;2022-09-12T01:45:49;3.10;;;2.90;;
18576;SDS011;9418;52.694;13.294;2022-09-12T01:48:23;3.83;;;3.47;;
18576;SDS011;9418;52.694;13.294;2022-09-12T01:50:55;8.80;;;3.30;;
18576;SDS011;9418;52.694;13.294;2022-09-12T01:53:25;3.23;;;2.93;;
18576;SDS011;9418;52.694;13.294;2022-09-12T01:55:57;9.83;;;3.40;;
18576;SDS011;9418;52.694;13.294;2022-09-12T01:58:29;5.03;;;3.07;;
18576;SDS011;9418;52.694;13.294;2022-09-12T02:01:05;4.73;;;3.10;;
18576;SDS011;9418;52.694;13.294;2022-09-12T02:03:37;3.20;;;3.00;;
18576;SDS011;9418;52.694;13.294;2022-09-12T02:06:09;3.60;;;3.07;;
18576;SDS011;9418;52.694;13.294;2022-09-12T02:08:43;2.97;;;2.77;;
18576;SDS011;9418;52.694;13.294;2022-09-12T02:11:12;3.33;;;3.13;;
18576;SDS011;9418;52.694;13.294;2022-09-12T02:13:40;3.40;;;3.20;;
18576;SDS011;9418;52.694;13.294;2022-09-12T02:16:10;3.87;;;3.07;;
18576;SDS011;9418;52.694;13.294;2022-09-12T02:18:43;2.83;;;2.63;;
18576;SDS011;9418;52.694;13.294;2022-09-12T02:21:12;2.80;;;2.70;;
18576;SDS011;9418;52.694;13.294;2022-09-12T02:23:40;2.47;;;2.37;;
18576;SDS011;9418;52.694;13.294;2022-09-12T02:26:12;2.90;;;2.70;;
18576;SDS011;9418;52.694;13.294;2022-09-12T02:28:43;3.30;;;3.00;;
18576;SDS011;9418;52.694;13.294;2022-09-12T02:31:13;3.17;;;2.97;;
18576;SDS011;9418;52.694;13.294;2022-09-12T02:33:48;3.10;;;2.80;;
18576;SDS011;9418;52.694;13.294;2022-09-12T02:36:25;3.43;;;3.10;;
18576;SDS011;9418;52.694;13.294;2022-09-12T02:38:59;4.83;;;3.83;;
18576;SDS011;9418;52.694;13.294;2022-09-12T02:41:26;3.67;;;3.37;;
18576;SDS011;9418;52.694;13.294;2022-09-12T02:43:53;3.83;;;3.63;;
18576;SDS011;9418;52.694;13.294;2022-09-12T02:46:22;2.97;;;2.80;;
18576;SDS011;9418;52.694;13.294;2022-09-12T02:48:53;3.27;;;3.07;;
18576;SDS011;9418;52.694;13.294;2022-09-12T02:51:20;4.00;;;3.13;;
18576;SDS011;9418;52.694;13.294;2022-09-12T02:53:47;3.50;;;3.30;;
18576;SDS011;9418;52.694;13.294;2022-09-12T02:56:16;4.07;;;2.80;;
18576;SDS011;9418;52.694;13.294;2022-09-12T02:58:46;3.77;;;3.47;;
18576;SDS011;9418;52.694;13.294;2022-09-12T03:01:16;3.70;;;3.40;;
18576;SDS011;9418;52.694;13.294;2022-09-12T03:03:59;3.43;;;3.13;;
18576;SDS011;9418;52.694;13.294;2022-09-12T03:06:38;3.37;;;3.17;;
18576;SDS011;9418;52.694;13.294;2022-09-12T03:09:12;3.03;;;2.77;;
18576;SDS011;9418;52.694;13.294;2022-09-12T03:11:55;3.20;;;2.80;;
18576;SDS011;9418;52.694;13.294;2022-09-12T03:14:35;3.30;;;3.10;;
18576;SDS011;9418;52.694;13.294;2022-09-12T03:17:17;5.40;;;4.20;;
18576;SDS011;9418;52.694;13.294;2022-09-12T03:19:52;4.30;;;3.90;;
18576;SDS011;9418;52.694;13.294;2022-09-12T03:22:26;4.40;;;4.00;;
18576;SDS011;9418;52.694;13.294;2022-09-12T03:24:57;4.20;;;3.90;;
18576;SDS011;9418;52.694;13.294;2022-09-12T03:27:32;3.90;;;3.60;;
18576;SDS011;9418;52.694;13.294;2022-09-12T03:30:02;4.03;;;3.60;;
18576;SDS011;9418;52.694;13.294;2022-09-12T03:32:41;4.20;;;3.80;;
18576;SDS011;9418;52.694;13.294;2022-09-12T03:35:09;4.43;;;3.70;;
18576;SDS011;9418;52.694;13.294;2022-09-12T03:37:36;4.07;;;3.50;;
18576;SDS011;9418;52.694;13.294;2022-09-12T03:40:03;9.33;;;3.47;;
18576;SDS011;9418;52.694;13.294;2022-09-12T03:42:33;4.73;;;4.10;;
18576;SDS011;9418;52.694;13.294;2022-09-12T03:44:59;5.57;;;4.80;;
18576;SDS011;9418;52.694;13.294;2022-09-12T03:47:26;5.30;;;4.60;;
18576;SDS011;9418;52.694;13.294;2022-09-12T03:49:54;5.60;;;5.10;;
18576;SDS011;9418;52.694;13.294;2022-09-12T03:52:21;4.63;;;4.23;;
18576;SDS011;9418;52.694;13.294;2022-09-12T03:54:48;5.80;;;3.97;;
18576;SDS011;9418;52.694;13.294;2022-09-12T03:57:14;5.87;;;3.80;;
18576;SDS011;9418;52.694;13.294;2022-09-12T03:59:41;5.80;;;4.47;;
18576;SDS011;9418;52.694;13.294;2022-09-12T04:02:08;3.77;;;3.47;;
18576;SDS011;9418;52.694;13.294;2022-09-12T04:04:36;4.43;;;4.03;;
18576;SDS011;9418;52.694;13.294;2022-09-12T04:07:04;4.70;;;3.80;;
18576;SDS011;9418;52.694;13.294;2022-09-12T04:09:31;3.77;;;3.50;;
18576;SDS011;9418;52.694;13.294;2022-09-12T04:11:57;6.30;;;3.83;;
18576;SDS011;9418;52.694;13.294;2022-09-12T04:14:24;5.23;;;3.30;;
18576;SDS011;9418;52.694;13.294;2022-09-12T04:16:51;4.10;;;3.70;;
18576;SDS011;9418;52.694;13.294;2022-09-12T04:19:17;3.67;;;3.37;;
18576;SDS011;9418;52.694;13.294;2022-09-12T04:21:44;5.93;;;3.67;;
18576;SDS011;9418;52.694;13.294;2022-09-12T04:24:12;4.53;;;4.13;;
18576;SDS011;9418;52.694;13.294;2022-09-12T04:26:38;5.87;;;3.70;;
18576;SDS011;9418;52.694;13.294;2022-09-12T04:29:05;11.63;;;3.53;;
18576;SDS011;9418;52.694;13.294;2022-09-12T04:31:31;3.80;;;3.50;;
18576;SDS011;9418;52.694;13.294;2022-09-12T04:33:58;4.00;;;3.70;;
18576;SDS011;9418;52.694;13.294;2022-09-12T04:36:26;4.20;;;3.87;;
18576;SDS011;9418;52.694;13.294;2022-09-12T04:38:53;3.60;;;3.10;;
18576;SDS011;9418;52.694;13.294;2022-09-12T04:41:22;4.13;;;3.83;;
18576;SDS011;9418;52.694;13.294;2022-09-12T04:43:51;5.97;;;3.40;;
18576;SDS011;9418;52.694;13.294;2022-09-12T04:46:19;4.40;;;3.63;;
18576;SDS011;9418;52.694;13.294;2022-09-12T04:48:46;5.03;;;4.10;;
18576;SDS011;9418;52.694;13.294;2022-09-12T04:51:14;3.53;;;3.23;;
18576;SDS011;9418;52.694;13.294;2022-09-12T04:53:42;6.40;;;3.10;;
18576;SDS011;9418;52.694;13.294;2022-09-12T04:56:13;4.43;;;4.03;;
18576;SDS011;9418;52.694;13.294;2022-09-12T04:58:41;6.00;;;5.40;;
18576;SDS011;9418;52.694;13.294;2022-09-12T05:01:09;4.43;;;4.03;;
18576;SDS011;9418;52.694;13.294;2022-09-12T05:03:38;5.23;;;4.53;;
18576;SDS011;9418;52.694;13.294;2022-09-12T05:06:07;6.73;;;4.60;;
18576;SDS011;9418;52.694;13.294;2022-09-12T05:08:36;9.60;;;4.40;;
18576;SDS011;9418;52.694;13.294;2022-09-12T05:11:04;8.27;;;5.07;;
18576;SDS011;9418;52.694;13.294;2022-09-12T05:13:32;6.50;;;4.30;;
18576;SDS011;9418;52.694;13.294;2022-09-12T05:16:01;5.40;;;4.90;;
18576;SDS011;9418;52.694;13.294;2022-09-12T05:18:30;4.73;;;4.43;;
18576;SDS011;9418;52.694;13.294;2022-09-12T05:20:57;7.90;;;5.10;;
18576;SDS011;9418;52.694;13.294;2022-09-12T05:23:24;6.30;;;4.70;;
18576;SDS011;9418;52.694;13.294;2022-09-12T05:25:51;5.00;;;4.47;;
18576;SDS011;9418;52.694;13.294;2022-09-12T05:28:20;4.67;;;4.27;;
18576;SDS011;9418;52.694;13.294;2022-09-12T05:30:47;4.40;;;4.00;;
18576;SDS011;9418;52.694;13.294;2022-09-12T05:33:25;5.50;;;4.33;;
18576;SDS011;9418;52.694;13.294;2022-09-12T05:35:52;4.63;;;4.13;;
18576;SDS011;9418;52.694;13.294;2022-09-12T05:38:18;5.60;;;4.60;;
18576;SDS011;9418;52.694;13.294;2022-09-12T05:40:45;6.10;;;5.50;;
18576;SDS011;9418;52.694;13.294;2022-09-12T05:43:12;4.57;;;4.17;;
18576;SDS011;9418;52.694;13.294;2022-09-12T05:45:38;6.60;;;5.20;;
18576;SDS011;9418;52.694;13.294;2022-09-12T05:48:06;7.10;;;6.50;;
18576;SDS011;9418;52.694;13.294;2022-09-12T05:50:34;5.70;;;5.20;;
18576;SDS011;9418;52.694;13.294;2022-09-12T05:53:00;7.30;;;5.80;;
18576;SDS011;9418;52.694;13.294;2022-09-12T05:55:27;8.30;;;6.40;;
18576;SDS011;9418;52.694;13.294;2022-09-12T05:57:55;6.53;;;5.60;;
18576;SDS011;9418;52.694;13.294;2022-09-12T06:00:21;5.83;;;5.23;;
18576;SDS011;9418;52.694;13.294;2022-09-12T06:02:50;5.97;;;5.37;;
18576;SDS011;9418;52.694;13.294;2022-09-12T06:05:17;5.77;;;5.30;;
18576;SDS011;9418;52.694;13.294;2022-09-12T06:07:45;5.87;;;5.37;;
18576;SDS011;9418;52.694;13.294;2022-09-12T06:10:12;6.70;;;5.27;;
18576;SDS011;9418;52.694;13.294;2022-09-12T06:12:40;5.80;;;5.40;;
18576;SDS011;9418;52.694;13.294;2022-09-12T06:15:08;6.40;;;5.80;;
18576;SDS011;9418;52.694;13.294;2022-09-12T06:17:34;8.93;;;5.33;;
18576;SDS011;9418;52.694;13.294;2022-09-12T06:20:01;5.67;;;5.27;;
18576;SDS011;9418;52.694;13.294;2022-09-12T06:22:29;5.43;;;5.03;;
18576;SDS011;9418;52.694;13.294;2022-09-12T06:24:57;5.43;;;5.03;;
18576;SDS011;9418;52.694;13.294;2022-09-12T06:27:23;5.90;;;5.40;;
18576;SDS011;9418;52.694;13.294;2022-09-12T06:29:50;7.60;;;5.00;;
18576;SDS011;9418;52.694;13.294;2022-09-12T06:32:17;8.23;;;5.83;;
18576;SDS011;9418;52.694;13.294;2022-09-12T06:34:43;5.57;;;5.07;;
18576;SDS011;9418;52.694;13.294;2022-09-12T06:37:12;13.13;;;5.93;;
18576;SDS011;9418;52.694;13.294;2022-09-12T06:39:39;5.97;;;5.37;;
18576;SDS011;9418;52.694;13.294;2022-09-12T06:42:07;6.13;;;5.70;;
18576;SDS011;9418;52.694;13.294;2022-09-12T06:44:34;5.93;;;5.43;;
18576;SDS011;9418;52.694;13.294;2022-09-12T06:47:01;6.57;;;6.07;;
18576;SDS011;9418;52.694;13.294;2022-09-12T06:49:27;10.83;;;6.70;;
18576;SDS011;9418;52.694;13.294;2022-09-12T06:51:54;8.37;;;6.77;;
18576;SDS011;9418;52.694;13.294;2022-09-12T06:54:21;6.83;;;5.97;;
18576;SDS011;9418;52.694;13.294;2022-09-12T06:56:50;6.70;;;6.10;;
18576;SDS011;9418;52.694;13.294;2022-09-12T06:59:18;11.30;;;7.00;;
18576;SDS011;9418;52.694;13.294;2022-09-12T07:01:45;10.90;;;6.80;;
18576;SDS011;9418;52.694;13.294;2022-09-12T07:04:11;9.10;;;5.70;;
18576;SDS011;9418;52.694;13.294;2022-09-12T07:06:39;8.20;;;7.07;;
18576;SDS011;9418;52.694;13.294;2022-09-12T07:09:10;7.10;;;6.50;;
18576;SDS011;9418;52.694;13.294;2022-09-12T07:11:38;7.03;;;6.43;;
18576;SDS011;9418;52.694;13.294;2022-09-12T07:14:07;7.93;;;6.70;;
18576;SDS011;9418;52.694;13.294;2022-09-12T07:16:36;6.77;;;6.10;;
18576;SDS011;9418;52.694;13.294;2022-09-12T07:19:03;6.67;;;6.00;;
18576;SDS011;9418;52.694;13.294;2022-09-12T07:21:31;10.03;;;6.60;;
18576;SDS011;9418;52.694;13.294;2022-09-12T07:24:00;8.97;;;6.17;;
18576;SDS011;9418;52.694;13.294;2022-09-12T07:26:27;6.73;;;5.77;;
18576;SDS011;9418;52.694;13.294;2022-09-12T07:28:55;6.67;;;6.00;;
18576;SDS011;9418;52.694;13.294;2022-09-12T07:31:23;5.97;;;5.47;;
18576;SDS011;9418;52.694;13.294;2022-09-12T07:33:52;6.20;;;5.60;;
18576;SDS011;9418;52.694;13.294;2022-09-12T07:36:19;6.23;;;5.83;;
18576;SDS011;9418;52.694;13.294;2022-09-12T07:38:47;5.17;;;4.70;;
18576;SDS011;9418;52.694;13.294;2022-09-12T07:41:19;5.50;;;5.00;;
18576;SDS011;9418;52.694;13.294;2022-09-12T07:43:47;6.80;;;4.80;;
18576;SDS011;9418;52.694;13.294;2022-09-12T07:46:17;6.40;;;5.13;;
18576;SDS011;9418;52.694;13.294;2022-09-12T07:48:43;5.27;;;4.83;;
18576;SDS011;9418;52.694;13.294;2022-09-12T07:51:15;5.00;;;4.60;;
18576;SDS011;9418;52.694;13.294;2022-09-12T07:53:42;4.40;;;4.10;;
18576;SDS011;9418;52.694;13.294;2022-09-12T07:56:09;9.93;;;4.57;;
18576;SDS011;9418;52.694;13.294;2022-09-12T07:58:37;5.27;;;4.73;;
18576;SDS011;9418;52.694;13.294;2022-09-12T08:01:06;4.00;;;3.60;;
18576;SDS011;9418;52.694;13.294;2022-09-12T08:03:35;4.07;;;3.77;;
18576;SDS011;9418;52.694;13.294;2022-09-12T08:06:02;5.40;;;4.10;;
18576;SDS011;9418;52.694;13.294;2022-09-12T08:08:31;3.40;;;3.10;;
18576;SDS011;9418;52.694;13.294;2022-09-12T08:10:58;4.30;;;2.93;;
18576;SDS011;9418;52.694;13.294;2022-09-12T08:13:25;3.13;;;2.90;;
18576;SDS011;9418;52.694;13.294;2022-09-12T08:15:55;3.70;;;3.40;;
18576;SDS011;9418;52.694;13.294;2022-09-12T08:18:23;5.30;;;4.00;;
18576;SDS011;9418;52.694;13.294;2022-09-12T08:20:54;3.90;;;3.57;;
18576;SDS011;9418;52.694;13.294;2022-09-12T08:23:22;3.47;;;2.90;;
18576;SDS011;9418;52.694;13.294;2022-09-12T08:25:50;2.87;;;2.67;;
18576;SDS011;9418;52.694;13.294;2022-09-12T08:28:17;4.93;;;2.77;;
18576;SDS011;9418;52.694;13.294;2022-09-12T08:30:43;2.00;;;1.87;;
18576;SDS011;9418;52.694;13.294;2022-09-12T08:33:10;2.00;;;1.90;;
18576;SDS011;9418;52.694;13.294;2022-09-12T08:35:37;2.70;;;2.50;;
18576;SDS011;9418;52.694;13.294;2022-09-12T08:38:03;3.53;;;2.70;;
18576;SDS011;9418;52.694;13.294;2022-09-12T08:40:30;3.37;;;3.07;;
18576;SDS011;9418;52.694;13.294;2022-09-12T08:43:00;2.30;;;2.20;;
18576;SDS011;9418;52.694;13.294;2022-09-12T08:45:32;2.90;;;2.03;;
18576;SDS011;9418;52.694;13.294;2022-09-12T08:48:03;4.63;;;1.90;;
18576;SDS011;9418;52.694;13.294;2022-09-12T08:50:34;6.00;;;2.10;;
18576;SDS011;9418;52.694;13.294;2022-09-12T08:53:01;1.70;;;1.60;;
18576;SDS011;9418;52.694;13.294;2022-09-12T08:55:32;3.23;;;1.50;;
18576;SDS011;9418;52.694;13.294;2022-09-12T08:58:05;1.50;;;1.40;;
18576;SDS011;9418;52.694;13.294;2022-09-12T09:00:38;1.97;;;1.80;;
18576;SDS011;9418;52.694;13.294;2022-09-12T09:03:17;2.07;;;1.30;;
18576;SDS011;9418;52.694;13.294;2022-09-12T09:06:12;2.90;;;1.20;;
18576;SDS011;9418;52.694;13.294;2022-09-12T09:08:49;3.07;;;1.40;;
18576;SDS011;9418;52.694;13.294;2022-09-12T09:11:31;1.00;;;1.00;;
18576;SDS011;9418;52.694;13.294;2022-09-12T09:14:11;1.00;;;0.90;;
18576;SDS011;9418;52.694;13.294;2022-09-12T09:17:03;1.10;;;1.00;;
18576;SDS011;9418;52.694;13.294;2022-09-12T09:19:36;2.00;;;1.40;;
18576;SDS011;9418;52.694;13.294;2022-09-12T09:22:10;1.43;;;1.33;;
18576;SDS011;9418;52.694;13.294;2022-09-12T09:24:42;3.00;;;1.13;;
18576;SDS011;9418;52.694;13.294;2022-09-12T09:27:14;1.40;;;1.30;;
18576;SDS011;9418;52.694;13.294;2022-09-12T09:29:53;1.03;;;0.93;;
18576;SDS011;9418;52.694;13.294;2022-09-12T09:32:24;2.97;;;1.33;;
18576;SDS011;9418;52.694;13.294;2022-09-12T09:34:52;2.03;;;1.30;;
18576;SDS011;9418;52.694;13.294;2022-09-12T09:37:19;1.80;;;1.70;;
18576;SDS011;9418;52.694;13.294;2022-09-12T09:39:56;1.53;;;1.30;;
18576;SDS011;9418;52.694;13.294;2022-09-12T09:42:34;2.50;;;1.50;;
18576;SDS011;9418;52.694;13.294;2022-09-12T09:45:14;2.60;;;1.60;;
18576;SDS011;9418;52.694;13.294;2022-09-12T09:47:43;4.10;;;1.37;;
18576;SDS011;9418;52.694;13.294;2022-09-12T09:50:13;1.30;;;1.27;;
18576;SDS011;9418;52.694;13.294;2022-09-12T09:52:42;4.40;;;2.10;;
18576;SDS011;9418;52.694;13.294;2022-09-12T09:55:11;1.40;;;1.40;;
18576;SDS011;9418;52.694;13.294;2022-09-12T09:57:43;2.70;;;1.23;;
18576;SDS011;9418;52.694;13.294;2022-09-12T10:00:29;1.50;;;1.33;;
18576;SDS011;9418;52.694;13.294;2022-09-12T10:03:00;1.57;;;1.30;;
18576;SDS011;9418;52.694;13.294;2022-09-12T10:05:49;1.30;;;1.10;;
18576;SDS011;9418;52.694;13.294;2022-09-12T10:08:21;3.10;;;1.53;;
18576;SDS011;9418;52.694;13.294;2022-09-12T10:10:53;1.90;;;1.20;;
18576;SDS011;9418;52.694;13.294;2022-09-12T10:13:30;3.80;;;1.27;;
18576;SDS011;9418;52.694;13.294;2022-09-12T10:16:04;1.20;;;1.13;;
18576;SDS011;9418;52.694;13.294;2022-09-12T10:18:42;1.67;;;1.57;;
18576;SDS011;9418;52.694;13.294;2022-09-12T10:21:12;5.23;;;1.37;;
18576;SDS011;9418;52.694;13.294;2022-09-12T10:23:42;1.33;;;1.23;;
18576;SDS011;9418;52.694;13.294;2022-09-12T10:26:12;1.33;;;1.20;;
18576;SDS011;9418;52.694;13.294;2022-09-12T10:28:41;0.90;;;0.90;;
18576;SDS011;9418;52.694;13.294;2022-09-12T10:31:12;2.50;;;1.27;;
18576;SDS011;9418;52.694;13.294;2022-09-12T10:33:42;1.30;;;0.93;;
18576;SDS011;9418;52.694;13.294;2022-09-12T10:36:15;1.93;;;1.20;;
18576;SDS011;9418;52.694;13.294;2022-09-12T10:38:47;1.03;;;1.03;;
18576;SDS011;9418;52.694;13.294;2022-09-12T10:41:15;1.67;;;1.23;;
18576;SDS011;9418;52.694;13.294;2022-09-12T10:43:42;0.60;;;0.60;;
18576;SDS011;9418;52.694;13.294;2022-09-12T10:46:21;2.80;;;1.10;;
18576;SDS011;9418;52.694;13.294;2022-09-12T10:51:38;1.77;;;0.83;;
18576;SDS011;9418;52.694;13.294;2022-09-12T10:54:07;0.80;;;0.80;;
18576;SDS011;9418;52.694;13.294;2022-09-12T10:56:37;1.93;;;0.80;;
18576;SDS011;9418;52.694;13.294;2022-09-12T10:59:15;1.33;;;1.00;;
18576;SDS011;9418;52.694;13.294;2022-09-12T11:01:53;0.93;;;0.93;;
18576;SDS011;9418;52.694;13.294;2022-09-12T11:04:25;0.87;;;0.87;;
18576;SDS011;9418;52.694;13.294;2022-09-12T11:07:01;0.93;;;0.93;;
18576;SDS011;9418;52.694;13.294;2022-09-12T11:09:44;0.90;;;0.90;;
18576;SDS011;9418;52.694;13.294;2022-09-12T11:12:19;7.23;;;1.07;;
18576;SDS011;9418;52.694;13.294;2022-09-12T11:15:00;0.83;;;0.83;;
18576;SDS011;9418;52.694;13.294;2022-09-12T11:17:40;1.43;;;1.10;;
18576;SDS011;9418;52.694;13.294;2022-09-12T11:23:27;4.30;;;1.50;;
18576;SDS011;9418;52.694;13.294;2022-09-12T11:26:11;3.77;;;1.03;;
18576;SDS011;9418;52.694;13.294;2022-09-12T11:28:50;1.43;;;1.33;;
18576;SDS011;9418;52.694;13.294;2022-09-12T11:31:36;4.93;;;1.73;;
18576;SDS011;9418;52.694;13.294;2022-09-12T11:34:15;10.90;;;3.13;;
18576;SDS011;9418;52.694;13.294;2022-09-12T11:36:49;17.80;;;2.20;;
18576;SDS011;9418;52.694;13.294;2022-09-12T11:39:27;2.40;;;1.67;;
18576;SDS011;9418;52.694;13.294;2022-09-12T11:42:00;3.00;;;1.53;;
18576;SDS011;9418;52.694;13.294;2022-09-12T11:44:32;1.50;;;1.40;;
18576;SDS011;9418;52.694;13.294;2022-09-12T11:47:03;2.00;;;1.67;;
18576;SDS011;9418;52.694;13.294;2022-09-12T11:49:35;1.47;;;1.13;;
18576;SDS011;9418;52.694;13.294;2022-09-12T11:52:06;1.43;;;1.33;;
18576;SDS011;9418;52.694;13.294;2022-09-12T11:54:40;1.10;;;1.10;;
18576;SDS011;9418;52.694;13.294;2022-09-12T11:57:10;1.10;;;1.00;;
18576;SDS011;9418;52.694;13.294;2022-09-12T11:59:42;2.87;;;1.40;;
18576;SDS011;9418;52.694;13.294;2022-09-12T12:02:14;1.87;;;1.10;;
18576;SDS011;9418;52.694;13.294;2022-09-12T12:04:53;1.63;;;0.90;;
18576;SDS011;9418;52.694;13.294;2022-09-12T12:07:26;1.43;;;1.00;;
18576;SDS011;9418;52.694;13.294;2022-09-12T12:09:59;2.73;;;1.13;;
18576;SDS011;9418;52.694;13.294;2022-09-12T12:12:26;0.93;;;0.93;;
18576;SDS011;9418;52.694;13.294;2022-09-12T12:14:54;1.90;;;1.10;;
18576;SDS011;9418;52.694;13.294;2022-09-12T12:17:22;1.00;;;1.00;;
18576;SDS011;9418;52.694;13.294;2022-09-12T12:19:57;1.60;;;1.00;;
18576;SDS011;9418;52.694;13.294;2022-09-12T12:22:26;0.90;;;0.90;;
18576;SDS011;9418;52.694;13.294;2022-09-12T12:24:54;2.90;;;0.80;;
18576;SDS011;9418;52.694;13.294;2022-09-12T12:36:29;0.80;;;0.80;;
18576;SDS011;9418;52.694;13.294;2022-09-12T12:45:45;1.23;;;1.07;;
18576;SDS011;9418;52.694;13.294;2022-09-12T12:48:14;1.47;;;1.10;;
18576;SDS011;9418;52.694;13.294;2022-09-12T12:50:44;1.93;;;0.90;;
18576;SDS011;9418;52.694;13.294;2022-09-12T12:53:17;1.77;;;1.00;;
18576;SDS011;9418;52.694;13.294;2022-09-12T12:55:48;1.10;;;1.10;;
18576;SDS011;9418;52.694;13.294;2022-09-12T12:58:26;1.00;;;1.00;;
18576;SDS011;9418;52.694;13.294;2022-09-12T13:01:02;2.53;;;0.90;;
18576;SDS011;9418;52.694;13.294;2022-09-12T13:03:35;1.10;;;1.10;;
18576;SDS011;9418;52.694;13.294;2022-09-12T13:06:04;0.80;;;0.80;;
18576;SDS011;9418;52.694;13.294;2022-09-12T13:08:35;1.50;;;1.40;;
18576;SDS011;9418;52.694;13.294;2022-09-12T13:11:06;1.07;;;0.97;;
18576;SDS011;9418;52.694;13.294;2022-09-12T13:13:36;2.47;;;1.43;;
18576;SDS011;9418;52.694;13.294;2022-09-12T13:16:07;2.10;;;0.80;;
18576;SDS011;9418;52.694;13.294;2022-09-12T13:18:38;1.33;;;0.70;;
18576;SDS011;9418;52.694;13.294;2022-09-12T13:21:09;2.00;;;0.90;;
18576;SDS011;9418;52.694;13.294;2022-09-12T13:23:40;1.77;;;1.53;;
18576;SDS011;9418;52.694;13.294;2022-09-12T13:26:09;1.00;;;1.00;;
18576;SDS011;9418;52.694;13.294;2022-09-12T13:28:37;1.23;;;0.87;;
18576;SDS011;9418;52.694;13.294;2022-09-12T13:31:06;1.80;;;1.70;;
18576;SDS011;9418;52.694;13.294;2022-09-12T13:33:38;4.00;;;1.50;;
18576;SDS011;9418;52.694;13.294;2022-09-12T13:36:21;2.20;;;1.27;;
18576;SDS011;9418;52.694;13.294;2022-09-12T13:39:04;2.97;;;0.87;;
18576;SDS011;9418;52.694;13.294;2022-09-12T13:41:44;1.33;;;1.03;;
18576;SDS011;9418;52.694;13.294;2022-09-12T13:44:23;1.10;;;0.90;;
18576;SDS011;9418;52.694;13.294;2022-09-12T13:46:53;1.10;;;0.80;;
18576;SDS011;9418;52.694;13.294;2022-09-12T13:49:26;1.50;;;0.83;;
18576;SDS011;9418;52.694;13.294;2022-09-12T13:51:57;0.90;;;0.90;;
18576;SDS011;9418;52.694;13.294;2022-09-12T13:54:28;1.53;;;1.10;;
18576;SDS011;9418;52.694;13.294;2022-09-12T13:56:56;1.40;;;1.23;;
18576;SDS011;9418;52.694;13.294;2022-09-12T13:59:23;2.00;;;1.20;;
18576;SDS011;9418;52.694;13.294;2022-09-12T14:01:50;2.17;;;1.10;;
18576;SDS011;9418;52.694;13.294;2022-09-12T14:04:18;1.10;;;0.90;;
18576;SDS011;9418;52.694;13.294;2022-09-12T14:07:08;1.20;;;1.10;;
18576;SDS011;9418;52.694;13.294;2022-09-12T14:09:40;7.03;;;1.30;;
18576;SDS011;9418;52.694;13.294;2022-09-12T14:12:11;0.73;;;0.73;;
18576;SDS011;9418;52.694;13.294;2022-09-12T14:14:45;1.20;;;1.00;;
18576;SDS011;9418;52.694;13.294;2022-09-12T14:17:15;1.87;;;0.80;;
18576;SDS011;9418;52.694;13.294;2022-09-12T14:19:42;1.10;;;1.00;;
18576;SDS011;9418;52.694;13.294;2022-09-12T14:22:11;0.83;;;0.83;;
18576;SDS011;9418;52.694;13.294;2022-09-12T14:24:43;2.40;;;1.20;;
18576;SDS011;9418;52.694;13.294;2022-09-12T14:27:16;0.70;;;0.70;;
18576;SDS011;9418;52.694;13.294;2022-09-12T14:29:44;1.30;;;0.90;;
18576;SDS011;9418;52.694;13.294;2022-09-12T14:32:16;0.70;;;0.70;;
18576;SDS011;9418;52.694;13.294;2022-09-12T14:37:29;0.70;;;0.60;;
18576;SDS011;9418;52.694;13.294;2022-09-12T14:39:57;0.73;;;0.70;;
18576;SDS011;9418;52.694;13.294;2022-09-12T14:42:25;2.00;;;1.13;;
18576;SDS011;9418;52.694;13.294;2022-09-12T14:44:56;0.90;;;0.90;;
18576;SDS011;9418;52.694;13.294;2022-09-12T14:47:27;0.90;;;0.90;;
18576;SDS011;9418;52.694;13.294;2022-09-12T14:49:59;0.87;;;0.87;;
18576;SDS011;9418;52.694;13.294;2022-09-12T14:52:26;1.00;;;1.00;;
18576;SDS011;9418;52.694;13.294;2022-09-12T14:54:58;0.83;;;0.83;;
18576;SDS011;9418;52.694;13.294;2022-09-12T14:57:29;0.93;;;0.93;;
18576;SDS011;9418;52.694;13.294;2022-09-12T15:00:19;1.27;;;1.10;;
18576;SDS011;9418;52.694;13.294;2022-09-12T15:02:48;1.70;;;1.37;;
18576;SDS011;9418;52.694;13.294;2022-09-12T15:05:17;1.30;;;1.17;;
18576;SDS011;9418;52.694;13.294;2022-09-12T15:07:50;1.50;;;1.50;;
18576;SDS011;9418;52.694;13.294;2022-09-12T15:10:21;1.90;;;1.27;;
18576;SDS011;9418;52.694;13.294;2022-09-12T15:12:50;3.93;;;1.40;;
18576;SDS011;9418;52.694;13.294;2022-09-12T15:15:40;2.07;;;1.00;;
18576;SDS011;9418;52.694;13.294;2022-09-12T15:18:08;1.20;;;1.20;;
18576;SDS011;9418;52.694;13.294;2022-09-12T15:20:35;1.90;;;1.00;;
18576;SDS011;9418;52.694;13.294;2022-09-12T15:23:03;1.13;;;1.10;;
18576;SDS011;9418;52.694;13.294;2022-09-12T15:25:34;1.60;;;1.33;;
18576;SDS011;9418;52.694;13.294;2022-09-12T15:28:01;1.13;;;1.13;;
18576;SDS011;9418;52.694;13.294;2022-09-12T15:30:31;1.53;;;1.00;;
18576;SDS011;9418;52.694;13.294;2022-09-12T15:32:57;1.30;;;1.23;;
18576;SDS011;9418;52.694;13.294;2022-09-12T15:35:25;1.40;;;1.30;;
18576;SDS011;9418;52.694;13.294;2022-09-12T15:37:56;5.87;;;1.37;;